CheckWX is a tool to help pilots better visualize weather data.  It is not intended as a substitute for an official pre-flight weather briefing.

00:32:05 UTC

CYYG METAR
Charlottetown Airport
Charlottetown, Canada
Current

32 mins ago

CYYG 170000Z CCA 34005KT 15SM BKN008 OVC016 13/12 A2985 RMK SF6SC2 SLP110
Observed
Sep-17 @ 00:00 UTC
Wind
  • 340° at 5 KTS
Visibility
15 SM
Flight Rules
IFR
Cloud Levels
  • Broken at 800' AGL
  • Overcast at 1,600' AGL
Temperature
13°C / 55°F
Dewpoint
12°C / 54°F
Humidity
94%
Altimeter
29.85" Hg
Pressure
1010.82 hPa
Previous

39 mins ago

CYYG 162353Z 35005KT 15SM -SHRA BKN009 OVC016 13/12 A2985 RMK SC5SC3 CVCTV CLD EMBD SLP111
Observed
Sep-16 @ 23:53 UTC
Wind
  • 350° at 5 KTS
Visibility
15 SM
Flight Rules
IFR
Conditions
Light Rain
Cloud Levels
  • Broken at 900' AGL
  • Overcast at 1,600' AGL
Temperature
13°C / 55°F
Dewpoint
12°C / 54°F
Humidity
94%
Altimeter
29.85" Hg
Pressure
1010.82 hPa
Previous

55 mins ago

CYYG 162337Z 32004KT 15SM BKN012 BKN020 OVC090 13/11 A2985 RMK SC5SC2AC1 SLP110
Observed
Sep-16 @ 23:37 UTC
Wind
  • 320° at 4 KTS
Visibility
15 SM
Flight Rules
MVFR
Cloud Levels
  • Broken at 1,200' AGL
  • Broken at 2,000' AGL
  • Overcast at 9,000' AGL
Temperature
13°C / 55°F
Dewpoint
11°C / 52°F
Humidity
88%
Altimeter
29.85" Hg
Pressure
1010.82 hPa